sensor_id;sensor_type;location;lat;lon;timestamp;P1;durP1;ratioP1;P2;durP2;ratioP2
46282;SDS011;32017;43.700;11.820;2023-01-06T00:02:08;61.92;;;23.35;;
46282;SDS011;32017;43.700;11.820;2023-01-06T00:04:28;59.53;;;23.33;;
46282;SDS011;32017;43.700;11.820;2023-01-06T00:06:48;49.40;;;22.95;;
46282;SDS011;32017;43.700;11.820;2023-01-06T00:09:08;38.90;;;21.65;;
46282;SDS011;32017;43.700;11.820;2023-01-06T00:11:27;31.48;;;21.15;;
46282;SDS011;32017;43.700;11.820;2023-01-06T00:13:48;62.95;;;22.05;;
46282;SDS011;32017;43.700;11.820;2023-01-06T00:16:09;59.05;;;23.17;;
46282;SDS011;32017;43.700;11.820;2023-01-06T00:18:30;48.20;;;21.23;;
46282;SDS011;32017;43.700;11.820;2023-01-06T00:20:50;30.38;;;19.27;;
46282;SDS011;32017;43.700;11.820;2023-01-06T00:23:10;39.40;;;21.05;;
46282;SDS011;32017;43.700;11.820;2023-01-06T00:25:30;31.02;;;19.05;;
46282;SDS011;32017;43.700;11.820;2023-01-06T00:27:49;23.35;;;17.58;;
46282;SDS011;32017;43.700;11.820;2023-01-06T00:30:10;27.65;;;18.33;;
46282;SDS011;32017;43.700;11.820;2023-01-06T00:32:30;26.15;;;18.88;;
46282;SDS011;32017;43.700;11.820;2023-01-06T00:34:50;22.67;;;18.05;;
46282;SDS011;32017;43.700;11.820;2023-01-06T00:37:10;25.42;;;17.85;;
46282;SDS011;32017;43.700;11.820;2023-01-06T00:39:30;24.13;;;18.63;;
46282;SDS011;32017;43.700;11.820;2023-01-06T00:41:50;23.35;;;17.70;;
46282;SDS011;32017;43.700;11.820;2023-01-06T00:44:22;27.05;;;18.23;;
46282;SDS011;32017;43.700;11.820;2023-01-06T00:46:42;26.20;;;20.55;;
46282;SDS011;32017;43.700;11.820;2023-01-06T00:49:02;27.52;;;19.98;;
46282;SDS011;32017;43.700;11.820;2023-01-06T00:51:25;28.95;;;21.02;;
46282;SDS011;32017;43.700;11.820;2023-01-06T00:53:45;30.33;;;20.67;;
46282;SDS011;32017;43.700;11.820;2023-01-06T00:56:05;25.02;;;19.48;;
46282;SDS011;32017;43.700;11.820;2023-01-06T00:58:28;28.52;;;20.98;;
46282;SDS011;32017;43.700;11.820;2023-01-06T01:00:49;21.92;;;19.42;;
46282;SDS011;32017;43.700;11.820;2023-01-06T01:03:09;23.92;;;19.10;;
46282;SDS011;32017;43.700;11.820;2023-01-06T01:05:29;27.10;;;18.20;;
46282;SDS011;32017;43.700;11.820;2023-01-06T01:07:49;29.15;;;20.20;;
46282;SDS011;32017;43.700;11.820;2023-01-06T01:10:09;26.08;;;19.27;;
46282;SDS011;32017;43.700;11.820;2023-01-06T01:12:29;29.80;;;20.88;;
46282;SDS011;32017;43.700;11.820;2023-01-06T01:14:50;29.75;;;21.30;;
46282;SDS011;32017;43.700;11.820;2023-01-06T01:17:13;40.13;;;20.77;;
46282;SDS011;32017;43.700;11.820;2023-01-06T01:19:38;36.97;;;21.98;;
46282;SDS011;32017;43.700;11.820;2023-01-06T01:21:59;36.28;;;22.83;;
46282;SDS011;32017;43.700;11.820;2023-01-06T01:24:19;29.65;;;21.95;;
46282;SDS011;32017;43.700;11.820;2023-01-06T01:26:40;38.22;;;23.42;;
46282;SDS011;32017;43.700;11.820;2023-01-06T01:29:00;37.65;;;22.52;;
46282;SDS011;32017;43.700;11.820;2023-01-06T01:31:20;31.42;;;21.05;;
46282;SDS011;32017;43.700;11.820;2023-01-06T01:33:40;33.05;;;21.65;;
46282;SDS011;32017;43.700;11.820;2023-01-06T01:36:04;32.25;;;22.60;;
46282;SDS011;32017;43.700;11.820;2023-01-06T01:38:26;33.03;;;22.38;;
46282;SDS011;32017;43.700;11.820;2023-01-06T01:40:46;33.03;;;21.30;;
46282;SDS011;32017;43.700;11.820;2023-01-06T01:43:08;26.85;;;18.65;;
46282;SDS011;32017;43.700;11.820;2023-01-06T01:45:30;26.33;;;17.58;;
46282;SDS011;32017;43.700;11.820;2023-01-06T01:47:58;27.85;;;18.55;;
46282;SDS011;32017;43.700;11.820;2023-01-06T01:50:29;38.00;;;22.58;;
46282;SDS011;32017;43.700;11.820;2023-01-06T01:52:51;34.05;;;21.35;;
46282;SDS011;32017;43.700;11.820;2023-01-06T01:55:14;37.10;;;21.48;;
46282;SDS011;32017;43.700;11.820;2023-01-06T01:57:41;34.97;;;22.63;;
46282;SDS011;32017;43.700;11.820;2023-01-06T02:00:08;24.57;;;19.53;;
46282;SDS011;32017;43.700;11.820;2023-01-06T02:02:29;19.92;;;17.73;;
46282;SDS011;32017;43.700;11.820;2023-01-06T02:04:51;20.65;;;17.92;;
46282;SDS011;32017;43.700;11.820;2023-01-06T02:07:12;24.42;;;18.75;;
46282;SDS011;32017;43.700;11.820;2023-01-06T02:09:38;26.02;;;16.70;;
46282;SDS011;32017;43.700;11.820;2023-01-06T02:12:07;22.85;;;17.10;;
46282;SDS011;32017;43.700;11.820;2023-01-06T02:14:28;20.13;;;18.05;;
46282;SDS011;32017;43.700;11.820;2023-01-06T02:50:37;18.73;;;16.80;;
46282;SDS011;32017;43.700;11.820;2023-01-06T02:55:50;18.10;;;16.23;;
46282;SDS011;32017;43.700;11.820;2023-01-06T03:01:25;21.40;;;17.38;;
46282;SDS011;32017;43.700;11.820;2023-01-06T03:03:50;21.35;;;16.90;;
46282;SDS011;32017;43.700;11.820;2023-01-06T03:06:13;19.27;;;17.38;;
46282;SDS011;32017;43.700;11.820;2023-01-06T03:08:35;21.73;;;17.25;;
46282;SDS011;32017;43.700;11.820;2023-01-06T03:10:56;19.88;;;17.70;;
46282;SDS011;32017;43.700;11.820;2023-01-06T03:13:35;24.25;;;17.48;;
46282;SDS011;32017;43.700;11.820;2023-01-06T03:15:59;24.30;;;17.45;;
46282;SDS011;32017;43.700;11.820;2023-01-06T03:18:19;24.55;;;16.77;;
46282;SDS011;32017;43.700;11.820;2023-01-06T03:20:39;19.23;;;17.05;;
46282;SDS011;32017;43.700;11.820;2023-01-06T03:22:59;18.92;;;16.80;;
46282;SDS011;32017;43.700;11.820;2023-01-06T03:25:19;19.95;;;17.13;;
46282;SDS011;32017;43.700;11.820;2023-01-06T03:27:40;20.55;;;16.17;;
46282;SDS011;32017;43.700;11.820;2023-01-06T03:30:01;20.23;;;17.02;;
46282;SDS011;32017;43.700;11.820;2023-01-06T03:32:47;18.00;;;16.02;;
46282;SDS011;32017;43.700;11.820;2023-01-06T03:35:11;19.20;;;17.23;;
46282;SDS011;32017;43.700;11.820;2023-01-06T03:40:15;21.90;;;16.00;;
46282;SDS011;32017;43.700;11.820;2023-01-06T03:46:10;18.13;;;16.42;;
46282;SDS011;32017;43.700;11.820;2023-01-06T03:56:47;19.95;;;16.63;;
46282;SDS011;32017;43.700;11.820;2023-01-06T03:59:21;17.40;;;15.68;;
46282;SDS011;32017;43.700;11.820;2023-01-06T04:01:45;20.80;;;17.60;;
46282;SDS011;32017;43.700;11.820;2023-01-06T04:04:06;21.58;;;18.00;;
46282;SDS011;32017;43.700;11.820;2023-01-06T04:06:26;17.08;;;15.68;;
46282;SDS011;32017;43.700;11.820;2023-01-06T04:08:46;20.85;;;17.02;;
46282;SDS011;32017;43.700;11.820;2023-01-06T04:11:06;18.48;;;16.52;;
46282;SDS011;32017;43.700;11.820;2023-01-06T04:13:26;19.73;;;17.38;;
46282;SDS011;32017;43.700;11.820;2023-01-06T04:15:45;17.45;;;15.52;;
46282;SDS011;32017;43.700;11.820;2023-01-06T04:18:05;17.88;;;16.20;;
46282;SDS011;32017;43.700;11.820;2023-01-06T04:20:27;19.05;;;14.43;;
46282;SDS011;32017;43.700;11.820;2023-01-06T04:22:48;18.27;;;16.60;;
46282;SDS011;32017;43.700;11.820;2023-01-06T04:25:08;18.83;;;15.55;;
46282;SDS011;32017;43.700;11.820;2023-01-06T04:27:28;16.77;;;15.15;;
46282;SDS011;32017;43.700;11.820;2023-01-06T04:29:48;18.40;;;15.50;;
46282;SDS011;32017;43.700;11.820;2023-01-06T04:32:08;16.80;;;15.13;;
46282;SDS011;32017;43.700;11.820;2023-01-06T04:34:28;17.75;;;16.13;;
46282;SDS011;32017;43.700;11.820;2023-01-06T04:36:48;17.50;;;15.77;;
46282;SDS011;32017;43.700;11.820;2023-01-06T04:39:08;16.85;;;14.63;;
46282;SDS011;32017;43.700;11.820;2023-01-06T04:41:28;17.23;;;15.63;;
46282;SDS011;32017;43.700;11.820;2023-01-06T04:43:50;16.80;;;15.40;;
46282;SDS011;32017;43.700;11.820;2023-01-06T04:46:10;16.90;;;15.38;;
46282;SDS011;32017;43.700;11.820;2023-01-06T04:48:30;19.80;;;16.55;;
46282;SDS011;32017;43.700;11.820;2023-01-06T04:51:04;17.38;;;14.40;;
46282;SDS011;32017;43.700;11.820;2023-01-06T04:53:25;16.38;;;15.15;;
46282;SDS011;32017;43.700;11.820;2023-01-06T04:55:44;15.65;;;14.02;;
46282;SDS011;32017;43.700;11.820;2023-01-06T04:58:04;15.15;;;13.65;;
46282;SDS011;32017;43.700;11.820;2023-01-06T05:00:24;15.93;;;14.50;;
46282;SDS011;32017;43.700;11.820;2023-01-06T05:02:44;16.75;;;15.13;;
46282;SDS011;32017;43.700;11.820;2023-01-06T05:05:05;15.95;;;14.52;;
46282;SDS011;32017;43.700;11.820;2023-01-06T05:07:25;18.52;;;16.73;;
46282;SDS011;32017;43.700;11.820;2023-01-06T05:09:44;19.20;;;17.17;;
46282;SDS011;32017;43.700;11.820;2023-01-06T05:12:04;19.50;;;17.48;;
46282;SDS011;32017;43.700;11.820;2023-01-06T05:14:24;19.13;;;16.90;;
46282;SDS011;32017;43.700;11.820;2023-01-06T05:16:44;21.80;;;17.88;;
46282;SDS011;32017;43.700;11.820;2023-01-06T05:19:05;17.90;;;15.35;;
46282;SDS011;32017;43.700;11.820;2023-01-06T05:21:26;15.82;;;14.45;;
46282;SDS011;32017;43.700;11.820;2023-01-06T05:23:51;16.98;;;15.32;;
46282;SDS011;32017;43.700;11.820;2023-01-06T05:26:14;14.52;;;13.32;;
46282;SDS011;32017;43.700;11.820;2023-01-06T05:28:38;14.77;;;13.77;;
46282;SDS011;32017;43.700;11.820;2023-01-06T05:31:01;16.00;;;14.55;;
46282;SDS011;32017;43.700;11.820;2023-01-06T05:33:22;14.27;;;12.93;;
46282;SDS011;32017;43.700;11.820;2023-01-06T05:35:42;14.82;;;13.57;;
46282;SDS011;32017;43.700;11.820;2023-01-06T05:38:02;14.35;;;13.43;;
46282;SDS011;32017;43.700;11.820;2023-01-06T05:40:22;13.45;;;12.45;;
46282;SDS011;32017;43.700;11.820;2023-01-06T05:42:42;14.05;;;13.00;;
46282;SDS011;32017;43.700;11.820;2023-01-06T05:45:02;17.73;;;16.05;;
46282;SDS011;32017;43.700;11.820;2023-01-06T05:47:22;19.38;;;17.42;;
46282;SDS011;32017;43.700;11.820;2023-01-06T05:49:42;17.83;;;16.08;;
46282;SDS011;32017;43.700;11.820;2023-01-06T05:52:02;17.15;;;14.82;;
46282;SDS011;32017;43.700;11.820;2023-01-06T05:54:23;15.32;;;14.00;;
46282;SDS011;32017;43.700;11.820;2023-01-06T05:56:42;14.63;;;13.45;;
46282;SDS011;32017;43.700;11.820;2023-01-06T05:59:02;17.27;;;15.60;;
46282;SDS011;32017;43.700;11.820;2023-01-06T06:01:23;19.02;;;16.65;;
46282;SDS011;32017;43.700;11.820;2023-01-06T06:03:46;21.55;;;18.50;;
46282;SDS011;32017;43.700;11.820;2023-01-06T06:06:07;32.90;;;17.38;;
46282;SDS011;32017;43.700;11.820;2023-01-06T06:08:27;21.25;;;19.15;;
46282;SDS011;32017;43.700;11.820;2023-01-06T06:10:47;26.92;;;21.60;;
46282;SDS011;32017;43.700;11.820;2023-01-06T06:13:06;25.00;;;19.63;;
46282;SDS011;32017;43.700;11.820;2023-01-06T06:15:26;22.27;;;19.48;;
46282;SDS011;32017;43.700;11.820;2023-01-06T06:17:46;26.42;;;19.70;;
46282;SDS011;32017;43.700;11.820;2023-01-06T06:20:06;21.25;;;17.90;;
46282;SDS011;32017;43.700;11.820;2023-01-06T06:22:26;21.20;;;17.88;;
46282;SDS011;32017;43.700;11.820;2023-01-06T06:24:46;19.58;;;17.17;;
46282;SDS011;32017;43.700;11.820;2023-01-06T06:27:06;20.52;;;17.83;;
46282;SDS011;32017;43.700;11.820;2023-01-06T06:29:26;25.05;;;21.17;;
46282;SDS011;32017;43.700;11.820;2023-01-06T06:31:46;22.58;;;20.00;;
46282;SDS011;32017;43.700;11.820;2023-01-06T06:34:08;19.75;;;17.75;;
46282;SDS011;32017;43.700;11.820;2023-01-06T06:36:30;17.52;;;16.15;;
46282;SDS011;32017;43.700;11.820;2023-01-06T06:38:50;17.95;;;16.40;;
46282;SDS011;32017;43.700;11.820;2023-01-06T06:41:11;18.73;;;16.50;;
46282;SDS011;32017;43.700;11.820;2023-01-06T06:43:31;21.38;;;19.05;;
46282;SDS011;32017;43.700;11.820;2023-01-06T06:45:52;23.45;;;20.35;;
46282;SDS011;32017;43.700;11.820;2023-01-06T06:48:12;18.52;;;16.83;;
46282;SDS011;32017;43.700;11.820;2023-01-06T06:50:32;15.98;;;14.52;;
46282;SDS011;32017;43.700;11.820;2023-01-06T06:52:53;16.70;;;14.77;;
46282;SDS011;32017;43.700;11.820;2023-01-06T06:55:13;16.90;;;15.60;;
46282;SDS011;32017;43.700;11.820;2023-01-06T06:57:34;17.15;;;15.55;;
46282;SDS011;32017;43.700;11.820;2023-01-06T06:59:53;16.30;;;14.68;;
46282;SDS011;32017;43.700;11.820;2023-01-06T07:02:13;17.33;;;15.73;;
46282;SDS011;32017;43.700;11.820;2023-01-06T07:04:33;15.80;;;14.20;;
46282;SDS011;32017;43.700;11.820;2023-01-06T07:06:54;16.17;;;14.95;;
46282;SDS011;32017;43.700;11.820;2023-01-06T07:09:14;16.70;;;15.20;;
46282;SDS011;32017;43.700;11.820;2023-01-06T07:11:35;16.48;;;15.20;;
46282;SDS011;32017;43.700;11.820;2023-01-06T07:13:55;16.48;;;15.13;;
46282;SDS011;32017;43.700;11.820;2023-01-06T07:16:16;15.10;;;13.63;;
46282;SDS011;32017;43.700;11.820;2023-01-06T07:18:38;15.95;;;14.43;;
46282;SDS011;32017;43.700;11.820;2023-01-06T07:20:58;13.25;;;12.50;;
46282;SDS011;32017;43.700;11.820;2023-01-06T07:23:19;15.13;;;13.73;;
46282;SDS011;32017;43.700;11.820;2023-01-06T07:25:40;16.05;;;14.40;;
46282;SDS011;32017;43.700;11.820;2023-01-06T07:28:00;17.80;;;15.85;;
46282;SDS011;32017;43.700;11.820;2023-01-06T07:30:26;22.98;;;17.73;;
46282;SDS011;32017;43.700;11.820;2023-01-06T07:32:46;20.48;;;17.05;;
46282;SDS011;32017;43.700;11.820;2023-01-06T07:35:05;18.23;;;16.35;;
46282;SDS011;32017;43.700;11.820;2023-01-06T07:37:25;21.83;;;19.58;;
46282;SDS011;32017;43.700;11.820;2023-01-06T07:39:45;17.70;;;16.00;;
46282;SDS011;32017;43.700;11.820;2023-01-06T07:42:07;30.02;;;22.13;;
46282;SDS011;32017;43.700;11.820;2023-01-06T07:44:27;22.17;;;19.93;;
46282;SDS011;32017;43.700;11.820;2023-01-06T07:46:47;27.20;;;24.35;;
46282;SDS011;32017;43.700;11.820;2023-01-06T07:49:06;48.75;;;38.25;;
46282;SDS011;32017;43.700;11.820;2023-01-06T07:51:26;34.45;;;28.77;;
46282;SDS011;32017;43.700;11.820;2023-01-06T07:53:46;27.65;;;23.67;;
46282;SDS011;32017;43.700;11.820;2023-01-06T07:56:06;27.10;;;23.83;;
46282;SDS011;32017;43.700;11.820;2023-01-06T07:58:26;30.33;;;25.55;;
46282;SDS011;32017;43.700;11.820;2023-01-06T08:00:48;31.50;;;25.95;;
46282;SDS011;32017;43.700;11.820;2023-01-06T08:03:08;29.55;;;24.20;;
46282;SDS011;32017;43.700;11.820;2023-01-06T08:05:35;24.40;;;22.20;;
46282;SDS011;32017;43.700;11.820;2023-01-06T08:07:56;25.70;;;23.23;;
46282;SDS011;32017;43.700;11.820;2023-01-06T08:10:16;21.70;;;19.77;;
46282;SDS011;32017;43.700;11.820;2023-01-06T08:12:36;21.23;;;19.30;;
46282;SDS011;32017;43.700;11.820;2023-01-06T08:14:56;24.02;;;21.60;;
46282;SDS011;32017;43.700;11.820;2023-01-06T08:17:16;24.50;;;21.55;;
46282;SDS011;32017;43.700;11.820;2023-01-06T08:19:35;24.10;;;21.67;;
46282;SDS011;32017;43.700;11.820;2023-01-06T08:21:55;22.15;;;20.25;;
46282;SDS011;32017;43.700;11.820;2023-01-06T08:24:14;23.85;;;21.05;;
46282;SDS011;32017;43.700;11.820;2023-01-06T08:26:34;20.80;;;18.70;;
46282;SDS011;32017;43.700;11.820;2023-01-06T08:28:54;19.88;;;17.98;;
46282;SDS011;32017;43.700;11.820;2023-01-06T08:31:15;26.13;;;23.65;;
46282;SDS011;32017;43.700;11.820;2023-01-06T08:35:58;20.27;;;18.55;;
46282;SDS011;32017;43.700;11.820;2023-01-06T08:38:18;21.73;;;19.85;;
46282;SDS011;32017;43.700;11.820;2023-01-06T08:40:39;21.67;;;19.60;;
46282;SDS011;32017;43.700;11.820;2023-01-06T08:42:58;21.20;;;19.40;;
46282;SDS011;32017;43.700;11.820;2023-01-06T08:45:18;22.42;;;20.50;;
46282;SDS011;32017;43.700;11.820;2023-01-06T08:47:38;18.90;;;17.17;;
46282;SDS011;32017;43.700;11.820;2023-01-06T08:49:58;27.33;;;24.38;;
46282;SDS011;32017;43.700;11.820;2023-01-06T08:52:18;15.98;;;14.95;;
46282;SDS011;32017;43.700;11.820;2023-01-06T08:54:38;15.25;;;14.15;;
46282;SDS011;32017;43.700;11.820;2023-01-06T08:56:58;14.82;;;13.93;;
46282;SDS011;32017;43.700;11.820;2023-01-06T08:59:18;14.30;;;13.30;;
46282;SDS011;32017;43.700;11.820;2023-01-06T09:01:37;13.27;;;12.48;;
46282;SDS011;32017;43.700;11.820;2023-01-06T09:03:58;14.55;;;13.30;;
46282;SDS011;32017;43.700;11.820;2023-01-06T09:06:20;10.95;;;10.52;;
46282;SDS011;32017;43.700;11.820;2023-01-06T09:08:41;11.77;;;11.07;;
46282;SDS011;32017;43.700;11.820;2023-01-06T09:11:05;9.93;;;9.38;;
46282;SDS011;32017;43.700;11.820;2023-01-06T09:13:26;9.80;;;9.23;;
46282;SDS011;32017;43.700;11.820;2023-01-06T09:15:46;15.40;;;13.90;;
46282;SDS011;32017;43.700;11.820;2023-01-06T09:18:08;19.38;;;17.48;;
46282;SDS011;32017;43.700;11.820;2023-01-06T09:20:28;16.70;;;15.35;;
46282;SDS011;32017;43.700;11.820;2023-01-06T09:22:48;18.05;;;16.48;;
46282;SDS011;32017;43.700;11.820;2023-01-06T09:25:08;12.15;;;11.35;;
46282;SDS011;32017;43.700;11.820;2023-01-06T09:27:28;17.50;;;16.20;;
46282;SDS011;32017;43.700;11.820;2023-01-06T09:29:48;26.55;;;24.05;;
46282;SDS011;32017;43.700;11.820;2023-01-06T09:32:08;24.80;;;22.70;;
46282;SDS011;32017;43.700;11.820;2023-01-06T09:34:28;10.00;;;9.13;;
46282;SDS011;32017;43.700;11.820;2023-01-06T09:36:48;9.07;;;8.68;;
46282;SDS011;32017;43.700;11.820;2023-01-06T09:39:08;6.53;;;6.07;;
46282;SDS011;32017;43.700;11.820;2023-01-06T09:44:24;10.20;;;9.70;;
46282;SDS011;32017;43.700;11.820;2023-01-06T09:46:49;9.88;;;8.95;;
46282;SDS011;32017;43.700;11.820;2023-01-06T09:51:43;16.73;;;14.98;;
46282;SDS011;32017;43.700;11.820;2023-01-06T09:54:23;12.07;;;10.90;;
46282;SDS011;32017;43.700;11.820;2023-01-06T09:56:52;10.68;;;9.95;;
46282;SDS011;32017;43.700;11.820;2023-01-06T09:59:35;11.25;;;10.70;;
46282;SDS011;32017;43.700;11.820;2023-01-06T10:02:02;9.07;;;8.20;;
46282;SDS011;32017;43.700;11.820;2023-01-06T10:04:28;8.48;;;7.95;;
46282;SDS011;32017;43.700;11.820;2023-01-06T10:07:38;6.80;;;6.53;;
46282;SDS011;32017;43.700;11.820;2023-01-06T10:09:35;6.28;;;5.88;;
46282;SDS011;32017;43.700;11.820;2023-01-06T10:22:53;3.95;;;3.10;;
46282;SDS011;32017;43.700;11.820;2023-01-06T10:26:00;4.22;;;4.03;;
46282;SDS011;32017;43.700;11.820;2023-01-06T10:28:28;4.55;;;4.35;;
46282;SDS011;32017;43.700;11.820;2023-01-06T10:31:08;4.97;;;4.68;;
46282;SDS011;32017;43.700;11.820;2023-01-06T10:33:33;4.43;;;4.32;;
46282;SDS011;32017;43.700;11.820;2023-01-06T10:35:58;4.50;;;4.40;;
46282;SDS011;32017;43.700;11.820;2023-01-06T10:38:25;5.28;;;5.13;;
46282;SDS011;32017;43.700;11.820;2023-01-06T10:40:51;3.72;;;3.63;;
46282;SDS011;32017;43.700;11.820;2023-01-06T10:43:13;4.65;;;4.55;;
46282;SDS011;32017;43.700;11.820;2023-01-06T10:47:58;6.53;;;5.90;;
46282;SDS011;32017;43.700;11.820;2023-01-06T10:50:20;3.95;;;3.85;;
46282;SDS011;32017;43.700;11.820;2023-01-06T10:52:41;5.80;;;5.50;;
46282;SDS011;32017;43.700;11.820;2023-01-06T10:55:02;4.47;;;4.38;;
46282;SDS011;32017;43.700;11.820;2023-01-06T10:57:29;4.28;;;4.18;;
46282;SDS011;32017;43.700;11.820;2023-01-06T11:02:42;5.70;;;5.50;;
46282;SDS011;32017;43.700;11.820;2023-01-06T11:05:04;6.10;;;5.78;;
46282;SDS011;32017;43.700;11.820;2023-01-06T11:07:24;6.72;;;6.43;;
46282;SDS011;32017;43.700;11.820;2023-01-06T11:09:44;6.28;;;5.97;;
46282;SDS011;32017;43.700;11.820;2023-01-06T11:12:10;5.15;;;4.78;;
46282;SDS011;32017;43.700;11.820;2023-01-06T11:14:38;5.43;;;5.32;;
46282;SDS011;32017;43.700;11.820;2023-01-06T11:17:00;5.13;;;4.85;;
46282;SDS011;32017;43.700;11.820;2023-01-06T11:19:24;4.97;;;4.68;;
46282;SDS011;32017;43.700;11.820;2023-01-06T11:22:04;5.60;;;5.30;;
46282;SDS011;32017;43.700;11.820;2023-01-06T11:24:48;3.55;;;3.35;;
46282;SDS011;32017;43.700;11.820;2023-01-06T11:27:14;3.97;;;3.78;;
46282;SDS011;32017;43.700;11.820;2023-01-06T11:29:35;4.07;;;3.92;;
46282;SDS011;32017;43.700;11.820;2023-01-06T11:31:55;5.68;;;5.50;;
46282;SDS011;32017;43.700;11.820;2023-01-06T11:34:20;5.90;;;5.70;;
46282;SDS011;32017;43.700;11.820;2023-01-06T11:36:42;7.63;;;5.80;;
46282;SDS011;32017;43.700;11.820;2023-01-06T11:39:12;4.22;;;3.97;;
46282;SDS011;32017;43.700;11.820;2023-01-06T11:41:36;4.40;;;4.10;;
46282;SDS011;32017;43.700;11.820;2023-01-06T11:44:17;4.68;;;4.47;;
46282;SDS011;32017;43.700;11.820;2023-01-06T11:46:59;5.47;;;5.28;;
46282;SDS011;32017;43.700;11.820;2023-01-06T11:49:24;6.43;;;5.95;;
46282;SDS011;32017;43.700;11.820;2023-01-06T11:52:07;5.82;;;5.40;;
46282;SDS011;32017;43.700;11.820;2023-01-06T11:54:45;4.72;;;4.63;;
46282;SDS011;32017;43.700;11.820;2023-01-06T12:03:16;9.07;;;8.20;;
46282;SDS011;32017;43.700;11.820;2023-01-06T12:05:55;5.25;;;5.00;;
46282;SDS011;32017;43.700;11.820;2023-01-06T12:08:35;4.47;;;4.03;;
46282;SDS011;32017;43.700;11.820;2023-01-06T12:11:27;4.30;;;3.90;;
46282;SDS011;32017;43.700;11.820;2023-01-06T12:13:55;3.80;;;3.70;;
46282;SDS011;32017;43.700;11.820;2023-01-06T12:16:38;4.82;;;4.32;;
46282;SDS011;32017;43.700;11.820;2023-01-06T12:19:08;4.72;;;4.57;;
46282;SDS011;32017;43.700;11.820;2023-01-06T12:21:40;5.50;;;5.20;;
46282;SDS011;32017;43.700;11.820;2023-01-06T12:24:01;5.20;;;4.93;;
46282;SDS011;32017;43.700;11.820;2023-01-06T12:26:25;4.82;;;4.50;;
46282;SDS011;32017;43.700;11.820;2023-01-06T12:28:46;1.85;;;1.75;;
46282;SDS011;32017;43.700;11.820;2023-01-06T12:31:12;1.70;;;1.70;;
46282;SDS011;32017;43.700;11.820;2023-01-06T12:36:39;4.78;;;2.33;;
46282;SDS011;32017;43.700;11.820;2023-01-06T12:39:02;1.92;;;1.83;;
46282;SDS011;32017;43.700;11.820;2023-01-06T12:47:00;2.65;;;2.45;;
46282;SDS011;32017;43.700;11.820;2023-01-06T12:49:38;2.88;;;2.72;;
46282;SDS011;32017;43.700;11.820;2023-01-06T12:52:05;2.50;;;2.30;;
46282;SDS011;32017;43.700;11.820;2023-01-06T12:54:31;2.00;;;1.83;;
46282;SDS011;32017;43.700;11.820;2023-01-06T12:57:15;2.42;;;2.25;;
46282;SDS011;32017;43.700;11.820;2023-01-06T13:15:51;2.05;;;2.05;;
46282;SDS011;32017;43.700;11.820;2023-01-06T13:18:27;3.20;;;2.95;;
46282;SDS011;32017;43.700;11.820;2023-01-06T13:21:01;2.90;;;2.80;;
46282;SDS011;32017;43.700;11.820;2023-01-06T13:28:39;3.03;;;2.92;;
46282;SDS011;32017;43.700;11.820;2023-01-06T13:37:27;3.90;;;3.78;;
46282;SDS011;32017;43.700;11.820;2023-01-06T13:39:43;3.60;;;3.40;;
46282;SDS011;32017;43.700;11.820;2023-01-06T13:42:06;4.32;;;4.03;;
46282;SDS011;32017;43.700;11.820;2023-01-06T13:44:33;4.13;;;4.03;;
46282;SDS011;32017;43.700;11.820;2023-01-06T13:47:00;3.25;;;3.05;;
46282;SDS011;32017;43.700;11.820;2023-01-06T13:49:23;3.15;;;2.95;;
46282;SDS011;32017;43.700;11.820;2023-01-06T13:51:44;3.92;;;3.83;;
46282;SDS011;32017;43.700;11.820;2023-01-06T13:54:05;3.75;;;3.47;;
46282;SDS011;32017;43.700;11.820;2023-01-06T13:56:26;4.10;;;3.75;;
46282;SDS011;32017;43.700;11.820;2023-01-06T13:59:16;4.25;;;4.05;;
46282;SDS011;32017;43.700;11.820;2023-01-06T14:01:38;3.55;;;3.35;;
46282;SDS011;32017;43.700;11.820;2023-01-06T14:06:46;5.28;;;4.93;;
46282;SDS011;32017;43.700;11.820;2023-01-06T14:09:12;4.05;;;3.60;;
46282;SDS011;32017;43.700;11.820;2023-01-06T14:11:37;3.25;;;3.15;;
46282;SDS011;32017;43.700;11.820;2023-01-06T14:13:58;2.95;;;2.75;;
46282;SDS011;32017;43.700;11.820;2023-01-06T14:16:20;3.03;;;2.83;;
46282;SDS011;32017;43.700;11.820;2023-01-06T14:18:44;3.80;;;3.60;;
46282;SDS011;32017;43.700;11.820;2023-01-06T14:23:48;4.35;;;4.15;;
46282;SDS011;32017;43.700;11.820;2023-01-06T14:26:13;5.22;;;4.53;;
46282;SDS011;32017;43.700;11.820;2023-01-06T14:28:33;4.82;;;4.50;;
46282;SDS011;32017;43.700;11.820;2023-01-06T14:33:45;4.30;;;4.00;;
46282;SDS011;32017;43.700;11.820;2023-01-06T14:36:13;4.43;;;4.00;;
46282;SDS011;32017;43.700;11.820;2023-01-06T14:38:42;5.15;;;4.93;;
46282;SDS011;32017;43.700;11.820;2023-01-06T14:41:21;3.95;;;3.70;;
46282;SDS011;32017;43.700;11.820;2023-01-06T14:46:17;4.85;;;4.40;;
46282;SDS011;32017;43.700;11.820;2023-01-06T14:48:42;5.85;;;5.40;;
46282;SDS011;32017;43.700;11.820;2023-01-06T14:51:04;4.32;;;4.07;;
46282;SDS011;32017;43.700;11.820;2023-01-06T14:53:31;3.83;;;3.63;;
46282;SDS011;32017;43.700;11.820;2023-01-06T14:56:01;3.88;;;3.78;;
46282;SDS011;32017;43.700;11.820;2023-01-06T14:58:33;5.13;;;4.82;;
46282;SDS011;32017;43.700;11.820;2023-01-06T15:00:58;3.70;;;3.50;;
46282;SDS011;32017;43.700;11.820;2023-01-06T15:03:22;4.88;;;4.25;;
46282;SDS011;32017;43.700;11.820;2023-01-06T15:05:44;5.38;;;5.18;;
46282;SDS011;32017;43.700;11.820;2023-01-06T15:08:25;6.55;;;6.15;;
46282;SDS011;32017;43.700;11.820;2023-01-06T15:10:45;7.07;;;6.68;;
46282;SDS011;32017;43.700;11.820;2023-01-06T15:15:38;5.03;;;4.85;;
46282;SDS011;32017;43.700;11.820;2023-01-06T15:17:59;7.50;;;7.10;;
46282;SDS011;32017;43.700;11.820;2023-01-06T15:20:21;5.55;;;5.38;;
46282;SDS011;32017;43.700;11.820;2023-01-06T15:22:48;5.07;;;4.75;;
46282;SDS011;32017;43.700;11.820;2023-01-06T15:25:17;6.40;;;6.10;;
46282;SDS011;32017;43.700;11.820;2023-01-06T15:27:44;6.10;;;5.65;;
46282;SDS011;32017;43.700;11.820;2023-01-06T15:30:14;8.38;;;7.88;;
46282;SDS011;32017;43.700;11.820;2023-01-06T15:32:36;8.57;;;8.18;;
46282;SDS011;32017;43.700;11.820;2023-01-06T15:34:59;10.15;;;9.38;;
46282;SDS011;32017;43.700;11.820;2023-01-06T15:37:21;11.75;;;10.85;;
46282;SDS011;32017;43.700;11.820;2023-01-06T15:39:44;11.60;;;10.70;;
46282;SDS011;32017;43.700;11.820;2023-01-06T15:42:04;11.07;;;10.27;;
46282;SDS011;32017;43.700;11.820;2023-01-06T15:54:45;10.05;;;9.38;;
46282;SDS011;32017;43.700;11.820;2023-01-06T15:57:09;11.25;;;10.63;;
46282;SDS011;32017;43.700;11.820;2023-01-06T15:59:36;10.55;;;9.85;;
46282;SDS011;32017;43.700;11.820;2023-01-06T16:01:57;11.40;;;10.55;;
46282;SDS011;32017;43.700;11.820;2023-01-06T16:04:17;11.45;;;10.75;;
46282;SDS011;32017;43.700;11.820;2023-01-06T16:06:38;13.70;;;12.50;;
46282;SDS011;32017;43.700;11.820;2023-01-06T16:11:37;9.57;;;8.95;;
46282;SDS011;32017;43.700;11.820;2023-01-06T16:14:49;10.55;;;9.68;;
46282;SDS011;32017;43.700;11.820;2023-01-06T16:19:29;12.85;;;11.85;;
46282;SDS011;32017;43.700;11.820;2023-01-06T16:21:51;12.77;;;11.77;;
46282;SDS011;32017;43.700;11.820;2023-01-06T16:24:30;11.80;;;10.80;;